createdAt,value
2022-08-10T00:03:41.381Z,98829.47
2022-08-10T00:08:42.742Z,98829.66
2022-08-10T00:13:44.097Z,98821.88
2022-08-10T00:18:45.430Z,98827.38
2022-08-10T00:23:46.759Z,98820.75
2022-08-10T00:28:48.094Z,98816.69
2022-08-10T00:33:49.428Z,98817.56
2022-08-10T00:38:50.819Z,98816.41
2022-08-10T00:43:52.157Z,98814.16
2022-08-10T00:49:00.522Z,98816.03
2022-08-10T00:54:02.106Z,98814.38
2022-08-10T00:59:04.912Z,98820.63
2022-08-10T01:04:55.514Z,98816.28
2022-08-10T01:09:37.885Z,98807.31
2022-08-10T01:14:58.173Z,98811.06
2022-08-10T01:19:59.649Z,98804.00
2022-08-10T01:25:09.218Z,98811.50
2022-08-10T01:30:14.408Z,98800.03
2022-08-10T01:35:33.067Z,98802.97
2022-08-10T01:40:36.836Z,98799.88
2022-08-10T01:45:45.246Z,98810.06
2022-08-10T01:50:59.153Z,98812.78
2022-08-10T01:56:02.426Z,98817.41
2022-08-10T02:01:04.830Z,98812.84
2022-08-10T02:06:07.614Z,98811.19
2022-08-10T02:11:11.267Z,98814.09
2022-08-10T02:16:13.893Z,98817.41
2022-08-10T02:21:15.518Z,98819.50
2022-08-10T02:26:17.195Z,98810.56
2022-08-10T02:31:23.099Z,98816.81
2022-08-10T02:36:26.974Z,98817.00
2022-08-10T02:45:16.175Z,98822.03
2022-08-10T02:47:02.220Z,98819.09
2022-08-10T02:52:08.921Z,98809.91
2022-08-10T02:57:10.562Z,98808.69
2022-08-10T03:02:14.381Z,98810.16
2022-08-10T03:07:17.775Z,98816.16
2022-08-10T03:12:40.573Z,98812.81
2022-08-10T03:17:42.989Z,98812.22
2022-08-10T03:23:00.657Z,98809.94
2022-08-10T03:28:02.377Z,98810.13
2022-08-10T03:33:04.670Z,98820.31
2022-08-10T03:38:06.142Z,98816.34
2022-08-10T03:43:07.803Z,98819.50
2022-08-10T03:48:09.705Z,98817.63
2022-08-10T03:53:25.697Z,98820.50
2022-08-10T03:58:32.884Z,98823.63
2022-08-10T04:03:34.277Z,98829.03
2022-08-10T04:08:35.608Z,98837.34
2022-08-10T04:13:37.316Z,98839.63
2022-08-10T04:18:40.409Z,98838.81
2022-08-10T04:23:44.086Z,98837.13
2022-08-10T04:28:45.509Z,98837.56
2022-08-10T04:33:48.075Z,98844.81
2022-08-10T04:38:49.974Z,98849.41
2022-08-10T04:43:51.362Z,98841.97
2022-08-10T04:48:59.655Z,98851.13
2022-08-10T04:54:08.158Z,98851.75
2022-08-10T04:59:10.306Z,98852.16
2022-08-10T05:04:37.153Z,98857.97
2022-08-10T05:09:32.965Z,98862.31
2022-08-10T05:14:34.606Z,98846.72
2022-08-10T05:20:03.684Z,98849.84
2022-08-10T05:24:57.262Z,98854.41
2022-08-10T05:30:01.298Z,98855.63
2022-08-10T05:35:05.601Z,98859.34
2022-08-10T05:40:07.622Z,98855.38
2022-08-10T05:45:18.806Z,98851.75
2022-08-10T05:50:22.197Z,98856.88
2022-08-10T05:55:24.216Z,98860.06
2022-08-10T06:00:37.496Z,98867.31
2022-08-10T06:05:41.259Z,98866.91
2022-08-10T06:12:24.130Z,98868.06
2022-08-10T06:16:07.272Z,98865.59
2022-08-10T06:21:09.565Z,98858.78
2022-08-10T06:26:14.870Z,98864.06
2022-08-10T06:31:18.477Z,98855.09
2022-08-10T06:36:21.231Z,98861.94
2022-08-10T06:41:57.675Z,98863.34
2022-08-10T06:46:49.450Z,98867.72
2022-08-10T06:51:57.016Z,98874.19
2022-08-10T06:57:17.333Z,98870.34
2022-08-10T07:02:26.696Z,98873.00
2022-08-10T07:07:29.996Z,98872.94
2022-08-10T07:12:32.425Z,98864.69
2022-08-10T07:17:39.508Z,98868.34
2022-08-10T07:23:26.875Z,98877.47
2022-08-10T07:28:03.641Z,98871.31
2022-08-10T07:33:05.900Z,98876.84
2022-08-10T07:38:07.964Z,98873.97
2022-08-10T07:43:09.730Z,98871.91
2022-08-10T07:48:15.769Z,98872.56
2022-08-10T07:53:19.050Z,98870.34
2022-08-10T07:58:22.791Z,98868.38
2022-08-10T08:03:25.185Z,98875.69
2022-08-10T08:08:28.280Z,98869.09
2022-08-10T08:13:30.574Z,98870.06
2022-08-10T08:18:36.842Z,98864.59
2022-08-10T08:24:16.473Z,98870.16
2022-08-10T08:29:04.801Z,98883.16
2022-08-10T08:34:07.884Z,98884.50
2022-08-10T08:39:10.557Z,98879.41
2022-08-10T08:44:24.245Z,98884.47
2022-08-10T08:50:08.234Z,98870.94
2022-08-10T08:56:04.581Z,98865.69
2022-08-10T09:00:50.473Z,98871.38
2022-08-10T09:06:06.057Z,98866.44
2022-08-10T09:11:19.413Z,98858.69
2022-08-10T09:16:32.339Z,98854.06
2022-08-10T09:22:12.974Z,98855.63
2022-08-10T09:27:43.295Z,98850.09
2022-08-10T09:36:14.153Z,98847.69
2022-08-10T09:38:25.156Z,98849.66
2022-08-10T09:43:45.516Z,98848.63
2022-08-10T09:48:50.391Z,98841.59
2022-08-10T09:54:00.790Z,98837.59
2022-08-10T09:59:27.130Z,98853.00
2022-08-10T10:04:58.678Z,98846.47
2022-08-10T10:10:03.174Z,98847.09
2022-08-10T10:15:24.215Z,98845.56
2022-08-10T10:20:27.017Z,98828.94
2022-08-10T10:25:50.624Z,98832.53
2022-08-10T10:31:04.753Z,98823.59
2022-08-10T10:36:19.290Z,98823.16
2022-08-10T10:41:31.175Z,98808.94
2022-08-10T10:46:58.655Z,98812.53
2022-08-10T10:52:01.939Z,98810.91
2022-08-10T10:57:09.289Z,98799.69
2022-08-10T11:02:13.645Z,98797.22
2022-08-10T11:07:21.828Z,98796.38
2022-08-10T11:12:29.285Z,98791.97
2022-08-10T11:17:38.505Z,98771.94
2022-08-10T11:22:58.483Z,98791.72
2022-08-10T11:28:18.407Z,98785.66
2022-08-10T11:33:33.001Z,98774.06
2022-08-10T11:39:11.103Z,98779.50
2022-08-10T11:44:11.530Z,98775.56
2022-08-10T11:49:17.481Z,98776.06
2022-08-10T11:54:25.072Z,98779.28
2022-08-10T11:59:47.170Z,98783.97
2022-08-10T12:04:51.955Z,98780.28
2022-08-10T12:10:10.938Z,98781.38
2022-08-10T12:15:21.548Z,98773.72
2022-08-10T12:20:31.573Z,98778.78
2022-08-10T12:25:56.205Z,98770.63
2022-08-10T12:31:01.785Z,98761.00
2022-08-10T12:36:22.363Z,98759.97
2022-08-10T12:41:44.736Z,98751.44
2022-08-10T12:47:00.009Z,98746.41
2022-08-10T12:52:23.916Z,98752.84
2022-08-10T12:57:25.717Z,98744.44
2022-08-10T13:02:32.737Z,98733.88
2022-08-10T13:08:24.958Z,98731.50
2022-08-10T13:12:57.577Z,98721.88
2022-08-10T13:18:01.271Z,98714.03
2022-08-10T13:23:05.552Z,98716.78
2022-08-10T13:28:36.005Z,98713.78
2022-08-10T13:34:39.999Z,98712.91
2022-08-10T13:38:55.314Z,98707.94
2022-08-10T13:43:58.162Z,98711.28
2022-08-10T13:49:03.161Z,98702.94
2022-08-10T13:54:05.646Z,98695.34
2022-08-10T13:59:10.009Z,98697.63
2022-08-10T14:04:12.868Z,98690.53
2022-08-10T14:09:15.160Z,98687.53
2022-08-10T14:14:17.420Z,98688.91
2022-08-10T14:19:27.668Z,98684.97
2022-08-10T14:24:29.968Z,98673.06
2022-08-10T14:29:33.008Z,98671.66
2022-08-10T14:36:16.847Z,98658.31
2022-08-10T14:40:01.513Z,98662.25
2022-08-10T14:45:07.184Z,98651.47
2022-08-10T14:50:08.915Z,98643.81
2022-08-10T14:55:19.406Z,98652.06
2022-08-10T15:00:31.669Z,98641.53
2022-08-10T15:05:39.820Z,98649.09
2022-08-10T15:10:43.701Z,98639.25
2022-08-10T15:16:12.095Z,98640.56
2022-08-10T15:21:17.372Z,98637.09
2022-08-10T15:26:20.831Z,98635.31
2022-08-10T15:31:22.609Z,98626.13
2022-08-10T15:36:43.081Z,98629.03
2022-08-10T15:41:59.459Z,98624.66
2022-08-10T15:47:03.991Z,98624.34
2022-08-10T15:52:13.161Z,98622.31
2022-08-10T15:57:37.579Z,98626.84
2022-08-10T16:03:05.120Z,98626.88
2022-08-10T16:08:07.461Z,98615.91
2022-08-10T16:13:59.508Z,98614.63
2022-08-10T16:18:36.262Z,98615.56
2022-08-10T16:23:41.230Z,98606.91
2022-08-10T16:28:45.924Z,98603.94
2022-08-10T16:33:53.534Z,98602.59
2022-08-10T16:38:57.434Z,98590.56
2022-08-10T16:44:00.684Z,98591.41
2022-08-10T16:49:02.496Z,98593.81
2022-08-10T16:54:04.162Z,98586.84
2022-08-10T16:59:06.187Z,98591.25
2022-08-10T17:04:10.087Z,98588.06
2022-08-10T17:09:17.028Z,98588.94
2022-08-10T17:14:21.963Z,98587.78
2022-08-10T17:19:24.604Z,98581.09
2022-08-10T17:24:29.748Z,98580.69
2022-08-10T17:29:57.702Z,98583.97
2022-08-10T17:34:57.212Z,98577.31
2022-08-10T17:40:02.730Z,98584.81
2022-08-10T17:45:04.867Z,98583.53
2022-08-10T17:50:06.570Z,98578.06
2022-08-10T17:55:08.620Z,98580.16
2022-08-10T18:00:14.753Z,98577.00
2022-08-10T18:05:16.572Z,98574.34
2022-08-10T18:10:20.083Z,98574.94
2022-08-10T18:15:23.378Z,98585.38
2022-08-10T18:20:28.064Z,98584.88
2022-08-10T18:25:32.672Z,98593.94
2022-08-10T18:30:45.151Z,98595.78
2022-08-10T18:35:48.471Z,98597.94
2022-08-10T18:40:55.658Z,98595.97
2022-08-10T18:45:59.703Z,98595.59
2022-08-10T18:51:05.579Z,98614.69
2022-08-10T18:56:27.447Z,98611.91
2022-08-10T19:02:08.237Z,98614.88
2022-08-10T19:07:12.557Z,98621.66
2022-08-10T19:12:30.045Z,98626.56
2022-08-10T19:18:06.081Z,98622.94
2022-08-10T19:23:10.517Z,98627.47
2022-08-10T19:28:27.165Z,98624.94
2022-08-10T19:33:42.632Z,98624.56
2022-08-10T19:38:53.037Z,98628.28
2022-08-10T19:44:02.631Z,98621.09
2022-08-10T19:49:10.316Z,98615.50
2022-08-10T19:54:18.188Z,98615.41
2022-08-10T20:00:15.133Z,98619.13
2022-08-10T20:04:56.661Z,98619.00
2022-08-10T20:10:01.473Z,98614.03
2022-08-10T20:15:08.875Z,98619.09
2022-08-10T20:20:18.636Z,98621.44
2022-08-10T20:25:27.630Z,98624.66
2022-08-10T20:30:32.372Z,98619.00
2022-08-10T20:35:53.181Z,98608.69
2022-08-10T20:41:12.710Z,98612.63
2022-08-10T20:46:33.346Z,98608.91
2022-08-10T20:51:58.485Z,98609.44
2022-08-10T20:57:55.567Z,98615.13
2022-08-10T21:03:06.940Z,98609.88
2022-08-10T21:08:17.247Z,98610.66
2022-08-10T21:13:33.874Z,98617.22
2022-08-10T21:18:54.066Z,98617.63
2022-08-10T21:23:57.454Z,98623.78
2022-08-10T21:29:20.408Z,98621.56
2022-08-10T21:34:35.082Z,98620.97
2022-08-10T21:39:42.410Z,98627.72
2022-08-10T21:45:22.158Z,98621.38
2022-08-10T21:51:05.907Z,98617.94
2022-08-10T21:56:50.284Z,98619.72
2022-08-10T22:02:17.489Z,98623.16
2022-08-10T22:07:39.189Z,98628.72
2022-08-10T22:13:00.605Z,98638.66
2022-08-10T22:18:31.399Z,98632.28
2022-08-10T22:23:51.909Z,98622.69
2022-08-10T22:29:14.312Z,98619.41
2022-08-10T22:34:55.872Z,98609.72
2022-08-10T22:40:54.231Z,98627.22
2022-08-10T22:46:17.388Z,98611.53
2022-08-10T22:51:21.174Z,98618.94
2022-08-10T22:56:41.975Z,98623.56
2022-08-10T23:02:07.730Z,98622.31
2022-08-10T23:07:10.489Z,98624.19
2022-08-10T23:12:22.057Z,98627.03
2022-08-10T23:18:01.582Z,98622.78
2022-08-10T23:23:09.573Z,98621.34
2022-08-10T23:28:13.200Z,98610.97
2022-08-10T23:33:37.525Z,98610.59
2022-08-10T23:38:40.905Z,98608.00
2022-08-10T23:44:03.434Z,98606.41
2022-08-10T23:49:07.604Z,98611.38
2022-08-10T23:54:12.823Z,98608.16
2022-08-10T23:59:15.380Z,98617.34
